sensor_id;sensor_type;location;lat;lon;timestamp;pressure;altitude;pressure_sealevel;temperature;humidity
68628;BME280;55611;48.602;9.490;2023-01-29T00:00:13;97900;;;3.9;61.5
68628;BME280;55611;48.602;9.490;2023-01-29T00:02:43;97910;;;3.9;61.5
68628;BME280;55611;48.602;9.490;2023-01-29T00:05:14;97910;;;3.9;61.5
68628;BME280;55611;48.602;9.490;2023-01-29T00:07:44;97910;;;3.8;61.5
68628;BME280;55611;48.602;9.490;2023-01-29T00:10:15;97910;;;3.8;61.5
68628;BME280;55611;48.602;9.490;2023-01-29T00:12:45;97910;;;3.7;61.5
68628;BME280;55611;48.602;9.490;2023-01-29T00:15:16;97900;;;3.7;61.5
68628;BME280;55611;48.602;9.490;2023-01-29T00:17:46;97900;;;3.6;61.5
68628;BME280;55611;48.602;9.490;2023-01-29T00:20:17;97910;;;3.7;61.5
68628;BME280;55611;48.602;9.490;2023-01-29T00:22:47;97910;;;3.7;61.5
68628;BME280;55611;48.602;9.490;2023-01-29T00:27:48;97910;;;3.7;61.5
68628;BME280;55611;48.602;9.490;2023-01-29T00:30:19;97910;;;3.7;61.5
68628;BME280;55611;48.602;9.490;2023-01-29T00:32:49;97910;;;3.7;61.5
68628;BME280;55611;48.602;9.490;2023-01-29T00:35:20;97900;;;3.8;61.5
68628;BME280;55611;48.602;9.490;2023-01-29T00:37:50;97910;;;3.8;61.5
68628;BME280;55611;48.602;9.490;2023-01-29T00:40:21;97900;;;3.7;61.5
68628;BME280;55611;48.602;9.490;2023-01-29T00:42:51;97900;;;3.8;61.5
68628;BME280;55611;48.602;9.490;2023-01-29T00:45:22;97900;;;3.8;61.5
68628;BME280;55611;48.602;9.490;2023-01-29T00:47:52;97900;;;3.8;61.5
68628;BME280;55611;48.602;9.490;2023-01-29T00:50:23;97900;;;3.8;61.5
68628;BME280;55611;48.602;9.490;2023-01-29T00:52:53;97900;;;3.8;61.5
68628;BME280;55611;48.602;9.490;2023-01-29T00:55:24;97900;;;3.8;61.5
68628;BME280;55611;48.602;9.490;2023-01-29T01:00:25;97890;;;3.8;61.5
68628;BME280;55611;48.602;9.490;2023-01-29T01:02:55;97900;;;3.8;61.5
68628;BME280;55611;48.602;9.490;2023-01-29T01:05:26;97900;;;3.8;61.5
68628;BME280;55611;48.602;9.490;2023-01-29T01:07:57;97900;;;3.8;61.5
68628;BME280;55611;48.602;9.490;2023-01-29T01:10:29;97900;;;3.7;61.5
68628;BME280;55611;48.602;9.490;2023-01-29T01:12:59;97900;;;3.8;61.5
68628;BME280;55611;48.602;9.490;2023-01-29T01:15:30;97900;;;3.8;61.5
68628;BME280;55611;48.602;9.490;2023-01-29T01:17:59;97900;;;3.8;61.5
68628;BME280;55611;48.602;9.490;2023-01-29T01:20:30;97890;;;3.8;61.5
68628;BME280;55611;48.602;9.490;2023-01-29T01:22:59;97900;;;3.8;61.5
68628;BME280;55611;48.602;9.490;2023-01-29T01:25:30;97890;;;3.8;61.5
68628;BME280;55611;48.602;9.490;2023-01-29T01:28:00;97890;;;3.8;61.5
68628;BME280;55611;48.602;9.490;2023-01-29T01:33:02;97880;;;3.8;61.5
68628;BME280;55611;48.602;9.490;2023-01-29T01:35:32;97890;;;3.8;61.5
68628;BME280;55611;48.602;9.490;2023-01-29T01:38:03;97890;;;3.8;61.5
68628;BME280;55611;48.602;9.490;2023-01-29T01:40:33;97880;;;3.8;61.5
68628;BME280;55611;48.602;9.490;2023-01-29T01:43:04;97880;;;3.8;61.5
68628;BME280;55611;48.602;9.490;2023-01-29T01:45:35;97870;;;3.8;61.5
68628;BME280;55611;48.602;9.490;2023-01-29T01:48:06;97880;;;3.8;61.5
68628;BME280;55611;48.602;9.490;2023-01-29T01:50:38;97880;;;3.8;61.5
68628;BME280;55611;48.602;9.490;2023-01-29T01:53:07;97870;;;3.8;61.5
68628;BME280;55611;48.602;9.490;2023-01-29T01:55:39;97880;;;3.8;61.5
68628;BME280;55611;48.602;9.490;2023-01-29T01:58:09;97880;;;3.9;61.5
68628;BME280;55611;48.602;9.490;2023-01-29T02:00:38;97880;;;3.8;61.5
68628;BME280;55611;48.602;9.490;2023-01-29T02:03:08;97880;;;3.8;61.5
68628;BME280;55611;48.602;9.490;2023-01-29T02:05:38;97870;;;3.8;61.5
68628;BME280;55611;48.602;9.490;2023-01-29T02:08:09;97870;;;3.8;61.5
68628;BME280;55611;48.602;9.490;2023-01-29T02:10:41;97870;;;3.9;61.5
68628;BME280;55611;48.602;9.490;2023-01-29T02:13:10;97880;;;3.9;61.5
68628;BME280;55611;48.602;9.490;2023-01-29T02:15:41;97880;;;3.9;61.5
68628;BME280;55611;48.602;9.490;2023-01-29T02:18:11;97880;;;3.8;61.5
68628;BME280;55611;48.602;9.490;2023-01-29T02:20:43;97870;;;3.9;61.5
68628;BME280;55611;48.602;9.490;2023-01-29T02:23:15;97880;;;3.9;61
68628;BME280;55611;48.602;9.490;2023-01-29T02:25:46;97880;;;3.9;61
68628;BME280;55611;48.602;9.490;2023-01-29T02:28:15;97880;;;3.8;61.5
68628;BME280;55611;48.602;9.490;2023-01-29T02:30:46;97890;;;3.7;61.5
68628;BME280;55611;48.602;9.490;2023-01-29T02:33:18;97890;;;3.7;61.5
68628;BME280;55611;48.602;9.490;2023-01-29T02:35:45;97890;;;3.8;61.5
68628;BME280;55611;48.602;9.490;2023-01-29T02:38:18;97880;;;3.8;61.5
68628;BME280;55611;48.602;9.490;2023-01-29T02:40:48;97880;;;3.9;61
68628;BME280;55611;48.602;9.490;2023-01-29T02:44:22;97890;;;3.9;61
68628;BME280;55611;48.602;9.490;2023-01-29T02:45:48;97890;;;3.9;61
68628;BME280;55611;48.602;9.490;2023-01-29T02:48:18;97900;;;3.8;61
68628;BME280;55611;48.602;9.490;2023-01-29T02:50:49;97900;;;3.8;61
68628;BME280;55611;48.602;9.490;2023-01-29T02:53:20;97900;;;3.8;61
68628;BME280;55611;48.602;9.490;2023-01-29T02:55:53;97900;;;3.8;61
68628;BME280;55611;48.602;9.490;2023-01-29T02:58:20;97900;;;3.8;61
68628;BME280;55611;48.602;9.490;2023-01-29T03:00:49;97900;;;3.8;61
68628;BME280;55611;48.602;9.490;2023-01-29T03:03:23;97890;;;3.9;61
68628;BME280;55611;48.602;9.490;2023-01-29T03:05:54;97900;;;3.8;61
68628;BME280;55611;48.602;9.490;2023-01-29T03:08:26;97900;;;3.7;61
68628;BME280;55611;48.602;9.490;2023-01-29T03:10:54;97890;;;3.7;61
68628;BME280;55611;48.602;9.490;2023-01-29T03:13:25;97890;;;3.7;61
68628;BME280;55611;48.602;9.490;2023-01-29T03:15:55;97890;;;3.8;61
68628;BME280;55611;48.602;9.490;2023-01-29T03:18:23;97880;;;3.8;61
68628;BME280;55611;48.602;9.490;2023-01-29T03:20:54;97880;;;3.8;61
68628;BME280;55611;48.602;9.490;2023-01-29T03:23:25;97880;;;3.8;61
68628;BME280;55611;48.602;9.490;2023-01-29T03:25:55;97880;;;3.8;61
68628;BME280;55611;48.602;9.490;2023-01-29T03:28:25;97870;;;3.8;61
68628;BME280;55611;48.602;9.490;2023-01-29T03:30:56;97870;;;3.8;61
68628;BME280;55611;48.602;9.490;2023-01-29T03:33:26;97870;;;3.8;61
68628;BME280;55611;48.602;9.490;2023-01-29T03:35:57;97870;;;3.8;61
68628;BME280;55611;48.602;9.490;2023-01-29T03:38:27;97880;;;3.7;61
68628;BME280;55611;48.602;9.490;2023-01-29T03:40:59;97880;;;3.7;61
68628;BME280;55611;48.602;9.490;2023-01-29T03:43:30;97890;;;3.7;61
68628;BME280;55611;48.602;9.490;2023-01-29T03:46:01;97890;;;3.7;61
68628;BME280;55611;48.602;9.490;2023-01-29T03:48:41;97890;;;3.7;61
68628;BME280;55611;48.602;9.490;2023-01-29T03:51:10;97890;;;3.7;61
68628;BME280;55611;48.602;9.490;2023-01-29T03:58:40;97880;;;3.6;61
68628;BME280;55611;48.602;9.490;2023-01-29T04:01:03;97880;;;3.6;61
68628;BME280;55611;48.602;9.490;2023-01-29T04:03:48;97880;;;3.7;61
68628;BME280;55611;48.602;9.490;2023-01-29T04:06:05;97880;;;3.8;61
68628;BME280;55611;48.602;9.490;2023-01-29T04:08:35;97890;;;3.8;61
68628;BME280;55611;48.602;9.490;2023-01-29T04:11:06;97890;;;3.8;61
68628;BME280;55611;48.602;9.490;2023-01-29T04:13:34;97890;;;3.7;61
68628;BME280;55611;48.602;9.490;2023-01-29T04:16:05;97890;;;3.7;61
68628;BME280;55611;48.602;9.490;2023-01-29T04:18:35;97900;;;3.7;61
68628;BME280;55611;48.602;9.490;2023-01-29T04:21:06;97900;;;3.7;61
68628;BME280;55611;48.602;9.490;2023-01-29T04:23:36;97890;;;3.6;61
68628;BME280;55611;48.602;9.490;2023-01-29T04:27:14;97890;;;3.6;61
68628;BME280;55611;48.602;9.490;2023-01-29T04:28:42;97890;;;3.6;61
68628;BME280;55611;48.602;9.490;2023-01-29T04:31:08;97890;;;3.5;61
68628;BME280;55611;48.602;9.490;2023-01-29T04:33:51;97890;;;3.6;61
68628;BME280;55611;48.602;9.490;2023-01-29T04:36:19;97890;;;3.6;61
68628;BME280;55611;48.602;9.490;2023-01-29T04:38:44;97900;;;3.7;61
68628;BME280;55611;48.602;9.490;2023-01-29T04:41:12;97900;;;3.6;61
68628;BME280;55611;48.602;9.490;2023-01-29T04:44:46;97900;;;3.6;61
68628;BME280;55611;48.602;9.490;2023-01-29T04:46:12;97900;;;3.6;61
68628;BME280;55611;48.602;9.490;2023-01-29T04:48:44;97890;;;3.6;61
68628;BME280;55611;48.602;9.490;2023-01-29T04:51:21;97900;;;3.5;61
68628;BME280;55611;48.602;9.490;2023-01-29T04:53:54;97900;;;3.6;61
68628;BME280;55611;48.602;9.490;2023-01-29T04:56:16;97900;;;3.6;61
68628;BME280;55611;48.602;9.490;2023-01-29T04:58:46;97900;;;3.6;61
68628;BME280;55611;48.602;9.490;2023-01-29T05:01:15;97900;;;3.6;61
68628;BME280;55611;48.602;9.490;2023-01-29T05:03:46;97900;;;3.6;61
68628;BME280;55611;48.602;9.490;2023-01-29T05:06:15;97890;;;3.6;61
68628;BME280;55611;48.602;9.490;2023-01-29T05:08:46;97900;;;3.5;61
68628;BME280;55611;48.602;9.490;2023-01-29T05:11:17;97890;;;3.5;61
68628;BME280;55611;48.602;9.490;2023-01-29T05:13:47;97890;;;3.5;61
68628;BME280;55611;48.602;9.490;2023-01-29T05:16:20;97890;;;3.5;61
68628;BME280;55611;48.602;9.490;2023-01-29T05:18:48;97890;;;3.5;61
68628;BME280;55611;48.602;9.490;2023-01-29T05:21:18;97890;;;3.5;61
68628;BME280;55611;48.602;9.490;2023-01-29T05:24:21;97900;;;3.5;61
68628;BME280;55611;48.602;9.490;2023-01-29T05:26:19;97890;;;3.5;61
68628;BME280;55611;48.602;9.490;2023-01-29T05:28:50;97890;;;3.5;61
68628;BME280;55611;48.602;9.490;2023-01-29T05:31:20;97880;;;3.5;61
68628;BME280;55611;48.602;9.490;2023-01-29T05:33:51;97890;;;3.5;61
68628;BME280;55611;48.602;9.490;2023-01-29T05:36:21;97900;;;3.5;61
68628;BME280;55611;48.602;9.490;2023-01-29T05:38:52;97890;;;3.5;61
68628;BME280;55611;48.602;9.490;2023-01-29T05:41:22;97890;;;3.5;61
68628;BME280;55611;48.602;9.490;2023-01-29T05:43:53;97900;;;3.5;61
68628;BME280;55611;48.602;9.490;2023-01-29T05:46:23;97900;;;3.6;61
68628;BME280;55611;48.602;9.490;2023-01-29T05:48:54;97900;;;3.5;61
68628;BME280;55611;48.602;9.490;2023-01-29T05:51:24;97910;;;3.5;61
68628;BME280;55611;48.602;9.490;2023-01-29T05:53:55;97900;;;3.5;61
68628;BME280;55611;48.602;9.490;2023-01-29T05:56:25;97900;;;3.5;61
68628;BME280;55611;48.602;9.490;2023-01-29T05:58:56;97890;;;3.5;61
68628;BME280;55611;48.602;9.490;2023-01-29T06:01:26;97900;;;3.5;61
68628;BME280;55611;48.602;9.490;2023-01-29T06:03:57;97900;;;3.5;61
68628;BME280;55611;48.602;9.490;2023-01-29T06:06:27;97890;;;3.4;61
68628;BME280;55611;48.602;9.490;2023-01-29T06:08:58;97880;;;3.3;61
68628;BME280;55611;48.602;9.490;2023-01-29T06:11:28;97870;;;3.3;61
68628;BME280;55611;48.602;9.490;2023-01-29T06:13:59;97860;;;3.3;61.5
68628;BME280;55611;48.602;9.490;2023-01-29T06:16:29;97850;;;3.3;61
68628;BME280;55611;48.602;9.490;2023-01-29T06:19:00;97860;;;3.3;61
68628;BME280;55611;48.602;9.490;2023-01-29T06:21:31;97860;;;3.2;61
68628;BME280;55611;48.602;9.490;2023-01-29T06:24:01;97870;;;3.2;61
68628;BME280;55611;48.602;9.490;2023-01-29T06:26:31;97870;;;3.3;61
68628;BME280;55611;48.602;9.490;2023-01-29T06:29:03;97870;;;3.2;61.5
68628;BME280;55611;48.602;9.490;2023-01-29T06:31:32;97870;;;3.1;61.5
68628;BME280;55611;48.602;9.490;2023-01-29T06:34:03;97870;;;3.1;61.5
68628;BME280;55611;48.602;9.490;2023-01-29T06:36:34;97870;;;3.2;61.5
68628;BME280;55611;48.602;9.490;2023-01-29T06:39:04;97880;;;3.2;61.5
68628;BME280;55611;48.602;9.490;2023-01-29T06:41:35;97880;;;3.3;61
68628;BME280;55611;48.602;9.490;2023-01-29T06:44:05;97880;;;3.3;61
68628;BME280;55611;48.602;9.490;2023-01-29T06:46:36;97890;;;3.3;61
68628;BME280;55611;48.602;9.490;2023-01-29T06:49:06;97890;;;3.3;61
68628;BME280;55611;48.602;9.490;2023-01-29T06:51:37;97890;;;3.2;61
68628;BME280;55611;48.602;9.490;2023-01-29T06:54:08;97880;;;3.2;61
68628;BME280;55611;48.602;9.490;2023-01-29T06:56:38;97880;;;3.2;61
68628;BME280;55611;48.602;9.490;2023-01-29T07:01:39;97890;;;3.3;61
68628;BME280;55611;48.602;9.490;2023-01-29T07:04:09;97900;;;3.4;61
68628;BME280;55611;48.602;9.490;2023-01-29T07:06:40;97900;;;3.3;61
68628;BME280;55611;48.602;9.490;2023-01-29T07:09:11;97910;;;3.3;61
68628;BME280;55611;48.602;9.490;2023-01-29T07:11:41;97900;;;3.3;61
68628;BME280;55611;48.602;9.490;2023-01-29T07:14:11;97900;;;3.3;61
68628;BME280;55611;48.602;9.490;2023-01-29T07:16:42;97910;;;3.3;61
68628;BME280;55611;48.602;9.490;2023-01-29T07:19:12;97910;;;3.3;61
68628;BME280;55611;48.602;9.490;2023-01-29T07:21:43;97910;;;3.3;61
68628;BME280;55611;48.602;9.490;2023-01-29T07:24:13;97920;;;3.3;61
68628;BME280;55611;48.602;9.490;2023-01-29T07:26:44;97920;;;3.2;61
68628;BME280;55611;48.602;9.490;2023-01-29T07:29:14;97920;;;3.2;61
68628;BME280;55611;48.602;9.490;2023-01-29T07:31:45;97920;;;3.2;61
68628;BME280;55611;48.602;9.490;2023-01-29T07:34:15;97920;;;3.2;61
68628;BME280;55611;48.602;9.490;2023-01-29T07:36:46;97920;;;3.2;61
68628;BME280;55611;48.602;9.490;2023-01-29T07:39:16;97920;;;3.2;61
68628;BME280;55611;48.602;9.490;2023-01-29T07:41:47;97920;;;3.2;61
68628;BME280;55611;48.602;9.490;2023-01-29T07:44:17;97920;;;3.3;61
68628;BME280;55611;48.602;9.490;2023-01-29T07:46:48;97920;;;3.3;61
68628;BME280;55611;48.602;9.490;2023-01-29T07:49:18;97920;;;3.3;61
68628;BME280;55611;48.602;9.490;2023-01-29T07:51:49;97920;;;3.4;61
68628;BME280;55611;48.602;9.490;2023-01-29T07:54:19;97920;;;3.4;61
68628;BME280;55611;48.602;9.490;2023-01-29T07:56:50;97920;;;3.5;61
68628;BME280;55611;48.602;9.490;2023-01-29T07:59:21;97930;;;3.5;61
68628;BME280;55611;48.602;9.490;2023-01-29T08:01:51;97930;;;3.6;61
68628;BME280;55611;48.602;9.490;2023-01-29T08:04:22;97940;;;3.6;61
68628;BME280;55611;48.602;9.490;2023-01-29T08:06:52;97940;;;3.6;61
68628;BME280;55611;48.602;9.490;2023-01-29T08:09:23;97940;;;3.5;61
68628;BME280;55611;48.602;9.490;2023-01-29T08:11:53;97940;;;3.6;61
68628;BME280;55611;48.602;9.490;2023-01-29T08:14:24;97940;;;3.7;61
68628;BME280;55611;48.602;9.490;2023-01-29T08:16:54;97940;;;3.7;61
68628;BME280;55611;48.602;9.490;2023-01-29T08:19:25;97940;;;3.7;61
68628;BME280;55611;48.602;9.490;2023-01-29T08:21:55;97950;;;3.7;61
68628;BME280;55611;48.602;9.490;2023-01-29T08:24:26;97940;;;3.7;61
68628;BME280;55611;48.602;9.490;2023-01-29T08:26:56;97940;;;3.6;61
68628;BME280;55611;48.602;9.490;2023-01-29T08:29:27;97940;;;3.7;61
68628;BME280;55611;48.602;9.490;2023-01-29T08:31:57;97930;;;3.6;61
68628;BME280;55611;48.602;9.490;2023-01-29T08:34:28;97930;;;3.7;61
68628;BME280;55611;48.602;9.490;2023-01-29T08:36:58;97930;;;3.7;61
68628;BME280;55611;48.602;9.490;2023-01-29T08:39:29;97940;;;3.7;61.5
68628;BME280;55611;48.602;9.490;2023-01-29T08:41:59;97940;;;3.8;61.5
68628;BME280;55611;48.602;9.490;2023-01-29T08:44:30;97940;;;3.8;61.5
68628;BME280;55611;48.602;9.490;2023-01-29T08:47:00;97950;;;3.7;61.5
68628;BME280;55611;48.602;9.490;2023-01-29T08:49:31;97950;;;3.8;61.5
68628;BME280;55611;48.602;9.490;2023-01-29T08:52:01;97950;;;3.8;61.5
68628;BME280;55611;48.602;9.490;2023-01-29T08:54:32;97950;;;3.9;61.5
68628;BME280;55611;48.602;9.490;2023-01-29T08:57:02;97950;;;3.9;61
68628;BME280;55611;48.602;9.490;2023-01-29T08:59:33;97950;;;3.8;61
68628;BME280;55611;48.602;9.490;2023-01-29T09:02:03;97950;;;3.8;61
68628;BME280;55611;48.602;9.490;2023-01-29T09:04:34;97950;;;3.7;61
68628;BME280;55611;48.602;9.490;2023-01-29T09:07:04;97960;;;3.7;61.5
68628;BME280;55611;48.602;9.490;2023-01-29T09:09:35;97970;;;3.7;61.5
68628;BME280;55611;48.602;9.490;2023-01-29T09:12:05;97970;;;3.7;61.5
68628;BME280;55611;48.602;9.490;2023-01-29T09:14:36;97970;;;3.8;61.5
68628;BME280;55611;48.602;9.490;2023-01-29T09:17:06;97970;;;3.8;61.5
68628;BME280;55611;48.602;9.490;2023-01-29T09:19:37;97980;;;3.7;61.5
68628;BME280;55611;48.602;9.490;2023-01-29T09:22:07;97980;;;3.6;61.5
68628;BME280;55611;48.602;9.490;2023-01-29T09:24:38;97980;;;3.5;61.5
68628;BME280;55611;48.602;9.490;2023-01-29T09:27:08;97980;;;3.5;61.5
68628;BME280;55611;48.602;9.490;2023-01-29T09:29:39;97990;;;3.6;61.5
68628;BME280;55611;48.602;9.490;2023-01-29T09:32:10;97990;;;3.8;61.5
68628;BME280;55611;48.602;9.490;2023-01-29T09:34:40;97990;;;4;61.5
68628;BME280;55611;48.602;9.490;2023-01-29T09:37:11;97980;;;4;61.5
68628;BME280;55611;48.602;9.490;2023-01-29T09:39:41;97970;;;4.1;61.5
68628;BME280;55611;48.602;9.490;2023-01-29T09:42:15;97960;;;4.2;61.5
68628;BME280;55611;48.602;9.490;2023-01-29T09:45:14;97960;;;4.3;61.5
68628;BME280;55611;48.602;9.490;2023-01-29T09:47:13;97960;;;4.4;61.5
68628;BME280;55611;48.602;9.490;2023-01-29T09:49:45;97960;;;4.4;61.5
68628;BME280;55611;48.602;9.490;2023-01-29T09:52:22;97970;;;4.3;61.5
68628;BME280;55611;48.602;9.490;2023-01-29T09:54:47;97970;;;4.4;61.5
68628;BME280;55611;48.602;9.490;2023-01-29T09:57:18;97970;;;4.2;61.5
68628;BME280;55611;48.602;9.490;2023-01-29T09:59:45;97970;;;4.1;61.5
68628;BME280;55611;48.602;9.490;2023-01-29T10:02:52;97970;;;3.9;61.5
68628;BME280;55611;48.602;9.490;2023-01-29T10:05:54;97970;;;4;61.5
68628;BME280;55611;48.602;9.490;2023-01-29T10:07:21;97960;;;4.1;61.5
68628;BME280;55611;48.602;9.490;2023-01-29T10:09:54;97950;;;4.2;61.5
68628;BME280;55611;48.602;9.490;2023-01-29T10:12:37;97950;;;4.3;61.5
68628;BME280;55611;48.602;9.490;2023-01-29T10:14:53;97950;;;4.3;61.5
68628;BME280;55611;48.602;9.490;2023-01-29T10:20:01;97920;;;4.5;61.5
68628;BME280;55611;48.602;9.490;2023-01-29T10:22:24;97920;;;4.5;61.5
68628;BME280;55611;48.602;9.490;2023-01-29T10:24:51;97910;;;4.6;61.5
68628;BME280;55611;48.602;9.490;2023-01-29T10:27:21;97910;;;4.7;61.5
68628;BME280;55611;48.602;9.490;2023-01-29T10:29:51;97910;;;4.7;61.5
68628;BME280;55611;48.602;9.490;2023-01-29T10:32:22;97890;;;4.8;61.5
68628;BME280;55611;48.602;9.490;2023-01-29T10:35:27;97880;;;5;61.5
68628;BME280;55611;48.602;9.490;2023-01-29T10:37:35;97880;;;5.1;62
68628;BME280;55611;48.602;9.490;2023-01-29T10:39:53;97890;;;5.2;62
68628;BME280;55611;48.602;9.490;2023-01-29T10:42:25;97890;;;5.2;62
68628;BME280;55611;48.602;9.490;2023-01-29T10:45:00;97900;;;5;62
68628;BME280;55611;48.602;9.490;2023-01-29T10:47:30;97900;;;5.2;62
68628;BME280;55611;48.602;9.490;2023-01-29T10:50:00;97900;;;5.4;62
68628;BME280;55611;48.602;9.490;2023-01-29T10:52:37;97900;;;5.4;62
68628;BME280;55611;48.602;9.490;2023-01-29T10:57:33;97910;;;5.5;62
68628;BME280;55611;48.602;9.490;2023-01-29T11:00:01;97900;;;5.6;62
68628;BME280;55611;48.602;9.490;2023-01-29T11:02:28;97900;;;5.6;62
68628;BME280;55611;48.602;9.490;2023-01-29T11:04:59;97890;;;5.7;62
68628;BME280;55611;48.602;9.490;2023-01-29T11:10:02;97890;;;5.6;62.5
68628;BME280;55611;48.602;9.490;2023-01-29T11:12:30;97890;;;5.6;62.5
68628;BME280;55611;48.602;9.490;2023-01-29T11:15:04;97890;;;5.7;62
68628;BME280;55611;48.602;9.490;2023-01-29T11:17:31;97880;;;5.7;62
68628;BME280;55611;48.602;9.490;2023-01-29T11:20:02;97880;;;5.7;62
68628;BME280;55611;48.602;9.490;2023-01-29T11:22:32;97880;;;5.7;62
68628;BME280;55611;48.602;9.490;2023-01-29T11:25:18;97870;;;5.7;62
68628;BME280;55611;48.602;9.490;2023-01-29T11:27:34;97870;;;5.6;62
68628;BME280;55611;48.602;9.490;2023-01-29T11:30:04;97880;;;5.5;62
68628;BME280;55611;48.602;9.490;2023-01-29T11:32:34;97890;;;5.3;62
68628;BME280;55611;48.602;9.490;2023-01-29T11:35:21;97890;;;5.2;62
68628;BME280;55611;48.602;9.490;2023-01-29T11:37:36;97890;;;5;61.5
68628;BME280;55611;48.602;9.490;2023-01-29T11:40:38;97890;;;4.8;61.5
68628;BME280;55611;48.602;9.490;2023-01-29T11:42:36;97890;;;4.7;61.5
68628;BME280;55611;48.602;9.490;2023-01-29T11:45:20;97880;;;4.9;61.5
68628;BME280;55611;48.602;9.490;2023-01-29T11:47:37;97880;;;5;61.5
68628;BME280;55611;48.602;9.490;2023-01-29T11:50:16;97880;;;5.1;61.5
68628;BME280;55611;48.602;9.490;2023-01-29T11:52:39;97880;;;5.2;61.5
68628;BME280;55611;48.602;9.490;2023-01-29T11:55:12;97870;;;5.2;61.5
68628;BME280;55611;48.602;9.490;2023-01-29T11:57:40;97870;;;5.3;61.5
68628;BME280;55611;48.602;9.490;2023-01-29T12:00:16;97860;;;5.5;62
68628;BME280;55611;48.602;9.490;2023-01-29T12:02:41;97850;;;5.7;61.5
68628;BME280;55611;48.602;9.490;2023-01-29T12:05:13;97840;;;5.7;61.5
68628;BME280;55611;48.602;9.490;2023-01-29T12:07:42;97840;;;5.4;61.5
68628;BME280;55611;48.602;9.490;2023-01-29T12:10:28;97840;;;5.4;61.5
68628;BME280;55611;48.602;9.490;2023-01-29T12:12:42;97850;;;5.5;61.5
68628;BME280;55611;48.602;9.490;2023-01-29T12:15:15;97850;;;5.4;61.5
68628;BME280;55611;48.602;9.490;2023-01-29T12:17:47;97850;;;5.2;61.5
68628;BME280;55611;48.602;9.490;2023-01-29T12:20:16;97850;;;5.2;61.5
68628;BME280;55611;48.602;9.490;2023-01-29T12:22:47;97830;;;5.4;61.5
68628;BME280;55611;48.602;9.490;2023-01-29T12:25:20;97820;;;5.5;61.5
68628;BME280;55611;48.602;9.490;2023-01-29T12:27:48;97810;;;5.6;61.5
68628;BME280;55611;48.602;9.490;2023-01-29T12:30:50;97800;;;5.7;61.5
68628;BME280;55611;48.602;9.490;2023-01-29T12:32:48;97800;;;5.8;61.5
68628;BME280;55611;48.602;9.490;2023-01-29T12:35:19;97790;;;5.8;61.5
68628;BME280;55611;48.602;9.490;2023-01-29T12:38:06;97790;;;5.7;61.5
68628;BME280;55611;48.602;9.490;2023-01-29T12:40:18;97780;;;5.7;61.5
68628;BME280;55611;48.602;9.490;2023-01-29T12:42:50;97780;;;5.7;61.5
68628;BME280;55611;48.602;9.490;2023-01-29T12:45:20;97770;;;5.7;61.5
68628;BME280;55611;48.602;9.490;2023-01-29T12:47:51;97760;;;5.6;61.5
68628;BME280;55611;48.602;9.490;2023-01-29T12:50:22;97750;;;5.7;61.5
68628;BME280;55611;48.602;9.490;2023-01-29T12:52:52;97740;;;5.6;61.5
68628;BME280;55611;48.602;9.490;2023-01-29T12:55:23;97730;;;5.6;61.5
68628;BME280;55611;48.602;9.490;2023-01-29T12:58:00;97720;;;5.7;61.5
68628;BME280;55611;48.602;9.490;2023-01-29T13:00:24;97720;;;5.6;61.5
68628;BME280;55611;48.602;9.490;2023-01-29T13:02:54;97710;;;5.6;61.5
68628;BME280;55611;48.602;9.490;2023-01-29T13:05:25;97700;;;5.7;61.5
68628;BME280;55611;48.602;9.490;2023-01-29T13:07:59;97710;;;5.7;61.5
68628;BME280;55611;48.602;9.490;2023-01-29T13:10:34;97710;;;5.7;61.5
68628;BME280;55611;48.602;9.490;2023-01-29T13:12:58;97710;;;5.8;61.5
68628;BME280;55611;48.602;9.490;2023-01-29T13:15:30;97720;;;5.7;61.5
68628;BME280;55611;48.602;9.490;2023-01-29T13:18:00;97710;;;5.7;61.5
68628;BME280;55611;48.602;9.490;2023-01-29T13:20:28;97720;;;5.7;61.5
68628;BME280;55611;48.602;9.490;2023-01-29T13:22:58;97730;;;5.4;61.5
68628;BME280;55611;48.602;9.490;2023-01-29T13:25:27;97720;;;5.4;61.5
68628;BME280;55611;48.602;9.490;2023-01-29T13:30:29;97710;;;5.4;61.5
68628;BME280;55611;48.602;9.490;2023-01-29T13:33:00;97710;;;5.5;61.5
68628;BME280;55611;48.602;9.490;2023-01-29T13:35:30;97710;;;5.5;61.5
68628;BME280;55611;48.602;9.490;2023-01-29T13:38:00;97710;;;5.5;61.5
68628;BME280;55611;48.602;9.490;2023-01-29T13:40:31;97710;;;5.3;61.5
68628;BME280;55611;48.602;9.490;2023-01-29T13:43:01;97710;;;5.1;61.5
68628;BME280;55611;48.602;9.490;2023-01-29T13:45:33;97710;;;5;61.5
68628;BME280;55611;48.602;9.490;2023-01-29T13:48:16;97710;;;5.2;61.5
68628;BME280;55611;48.602;9.490;2023-01-29T13:50:35;97720;;;5.3;61
68628;BME280;55611;48.602;9.490;2023-01-29T13:53:03;97720;;;5.2;61
68628;BME280;55611;48.602;9.490;2023-01-29T13:55:34;97720;;;5.3;61
68628;BME280;55611;48.602;9.490;2023-01-29T13:58:05;97710;;;5.3;61
68628;BME280;55611;48.602;9.490;2023-01-29T14:00:48;97710;;;5.4;61
68628;BME280;55611;48.602;9.490;2023-01-29T14:03:32;97710;;;5.4;61
68628;BME280;55611;48.602;9.490;2023-01-29T14:05:37;97720;;;5.3;61
68628;BME280;55611;48.602;9.490;2023-01-29T14:08:35;97710;;;5.3;61
68628;BME280;55611;48.602;9.490;2023-01-29T14:10:37;97720;;;5.2;61
68628;BME280;55611;48.602;9.490;2023-01-29T14:15:38;97720;;;5.1;61
68628;BME280;55611;48.602;9.490;2023-01-29T14:18:13;97730;;;5.1;61
68628;BME280;55611;48.602;9.490;2023-01-29T14:21:19;97730;;;5.2;61
68628;BME280;55611;48.602;9.490;2023-01-29T14:23:18;97730;;;5.2;61
68628;BME280;55611;48.602;9.490;2023-01-29T14:25:40;97730;;;5.1;61
68628;BME280;55611;48.602;9.490;2023-01-29T14:28:14;97730;;;5;61
68628;BME280;55611;48.602;9.490;2023-01-29T14:30:44;97730;;;5.1;61
68628;BME280;55611;48.602;9.490;2023-01-29T14:33:21;97730;;;5;61
68628;BME280;55611;48.602;9.490;2023-01-29T14:35:42;97730;;;5;61
68628;BME280;55611;48.602;9.490;2023-01-29T14:38:12;97730;;;5;61
68628;BME280;55611;48.602;9.490;2023-01-29T14:40:44;97720;;;5.1;61
68628;BME280;55611;48.602;9.490;2023-01-29T14:43:15;97720;;;5;61
68628;BME280;55611;48.602;9.490;2023-01-29T14:45:44;97720;;;5;61
68628;BME280;55611;48.602;9.490;2023-01-29T14:48:19;97730;;;5.1;61
68628;BME280;55611;48.602;9.490;2023-01-29T14:50:46;97730;;;5.2;61
68628;BME280;55611;48.602;9.490;2023-01-29T14:53:20;97730;;;5.1;61
68628;BME280;55611;48.602;9.490;2023-01-29T14:55:51;97720;;;5;61
68628;BME280;55611;48.602;9.490;2023-01-29T14:58:18;97720;;;5;61
68628;BME280;55611;48.602;9.490;2023-01-29T15:00:49;97720;;;5.1;60.5
68628;BME280;55611;48.602;9.490;2023-01-29T15:03:18;97720;;;5.1;60.5
68628;BME280;55611;48.602;9.490;2023-01-29T15:05:48;97720;;;5;60.5
68628;BME280;55611;48.602;9.490;2023-01-29T15:08:22;97720;;;5;60.5